Maun, Botswana

6:39 PM CAT on March 06, 2015 (GMT +0200)
Maun | Change Station
CLOSE
Current Station
Airport
Location: Maun,
Elevation: 3091 ft
Nearby Weather Stations

Elev 3091 ft 19.98 °S, 23.42 °E | Updated 39 minutes ago

Partly Cloudy
Partly Cloudy
93 °F
Feels Like 93 °F
N
12
Wind Variable Wind from ENE

Today
High -- | Low -- °F
--% Chance of Precip.
Yesterday
High -- | Low -- °F
Precip. -- in
6:25 AM 6:49 PM
Full, 99% visible
Pressure 29.95 in
Visibility 6.2 miles
Clouds Few 3000 ft
Dew Point 46 °F
Humidity 20%
Rainfall 0.00 in
Snow Depth Not available.
UV 1 out of 12
Pollen Not available.
Air Quality Not available.
Flu Activity Not available.
METAR FBMN 061600Z 06010KT 9999 FEW030 34/08 Q1014

More Conditions Fewer Conditions

Pressure 29.95 in
Visibility 6.2 miles
Clouds Few 3000 ft
Dew Point 46 °F
Humidity 20%
Rainfall 0.00 in
Snow Depth Not available.
UV 1 out of 12
Pollen Not available.
Air Quality Not available.
Flu Activity Not available.
METAR FBMN 061600Z 06010KT 9999 FEW030 34/08 Q1014

More Conditions Fewer Conditions

10-Day Weather Forecast

Almanac

Astronomy

Mar. 06, 2015 Rise Set
Actual Time
Civil Twilight
Nautical Twilight
Astronomical Twilight
Moon
Length of Visible Light
Length of Day
Tomorrow will be .
, % of the Moon is Illuminated

Today's Extremes

Country Highs Country Lows

Community

WunderPhotos

Upload Photos

1,803,334 photos uploaded!

WunderBlogs® & News

Nearby

Air Quality

  Air Quality AQ Index Pollutant
Not available.

Snow Depth

Station Depth Elevation

Earthquake Activity

City Distance Mag. Time & Date
Minimum magnitude displayed is 2.5.

Coastal Water Temperatures

Place Temperature

Nearby Weather Stations